createdAt,value
2019-03-21T00:00:08.211Z,88.40
2019-03-21T00:02:37.994Z,88.10
2019-03-21T00:05:08.611Z,88.50
2019-03-21T00:07:38.764Z,88.80
2019-03-21T00:10:41.195Z,88.70
2019-03-21T00:13:11.187Z,88.50
2019-03-21T00:15:42.766Z,88.70
2019-03-21T00:18:12.198Z,88.60
2019-03-21T00:20:41.933Z,88.80
2019-03-21T00:23:11.706Z,89.40
2019-03-21T00:25:41.575Z,89.80
2019-03-21T00:28:11.424Z,90.00
2019-03-21T00:30:41.534Z,90.00
2019-03-21T00:33:11.742Z,90.10
2019-03-21T00:35:41.634Z,90.20
2019-03-21T00:38:11.395Z,90.20
2019-03-21T00:40:44.002Z,90.30
2019-03-21T00:43:11.450Z,90.30
2019-03-21T00:45:41.165Z,90.50
2019-03-21T00:48:13.712Z,90.70
2019-03-21T00:50:43.585Z,90.70
2019-03-21T00:53:13.489Z,90.50
2019-03-21T00:55:44.179Z,90.50
2019-03-21T00:58:13.990Z,90.20
2019-03-21T01:00:46.328Z,89.70
2019-03-21T01:03:16.753Z,89.50
2019-03-21T01:05:47.077Z,89.00
2019-03-21T01:08:17.242Z,88.50
2019-03-21T01:10:47.230Z,88.10
2019-03-21T01:13:17.336Z,87.80
2019-03-21T01:15:48.133Z,87.90
2019-03-21T01:18:17.897Z,88.20
2019-03-21T01:20:48.022Z,88.70
2019-03-21T01:23:18.204Z,89.10
2019-03-21T01:25:49.897Z,89.70
2019-03-21T01:28:20.377Z,90.10
2019-03-21T01:30:50.450Z,90.10
2019-03-21T01:33:21.033Z,89.50
2019-03-21T01:35:50.825Z,89.20
2019-03-21T01:38:23.046Z,89.10
2019-03-21T01:40:52.961Z,89.00
2019-03-21T01:43:23.116Z,88.60
2019-03-21T01:45:52.983Z,88.80
2019-03-21T01:48:23.481Z,88.80
2019-03-21T01:50:53.285Z,89.00
2019-03-21T01:53:23.056Z,89.60
2019-03-21T01:55:52.911Z,90.00
2019-03-21T01:58:22.968Z,90.10
2019-03-21T02:00:52.987Z,90.40
2019-03-21T02:03:23.087Z,90.70
2019-03-21T02:05:52.852Z,91.00
2019-03-21T02:08:23.218Z,90.90
2019-03-21T02:10:53.142Z,91.00
2019-03-21T02:13:22.984Z,90.90
2019-03-21T02:15:59.332Z,91.10
2019-03-21T02:18:26.294Z,91.20
2019-03-21T02:20:56.157Z,91.40
2019-03-21T02:23:26.177Z,91.30
2019-03-21T02:25:56.292Z,91.30
2019-03-21T02:28:29.291Z,91.30
2019-03-21T02:30:59.180Z,91.20
2019-03-21T02:33:30.791Z,91.30
2019-03-21T02:36:05.987Z,91.30
2019-03-21T02:38:38.438Z,91.40
2019-03-21T02:41:08.833Z,91.40
2019-03-21T02:43:43.175Z,91.10
2019-03-21T02:46:15.417Z,91.20
2019-03-21T02:48:46.538Z,91.20
2019-03-21T02:51:17.681Z,91.20
2019-03-21T02:53:50.066Z,91.10
2019-03-21T02:56:22.814Z,91.00
2019-03-21T02:58:58.303Z,90.80
2019-03-21T03:01:33.943Z,90.80
2019-03-21T03:04:03.666Z,91.10
2019-03-21T03:06:35.905Z,91.30
2019-03-21T03:09:07.788Z,91.40
2019-03-21T03:11:40.421Z,91.50
2019-03-21T03:14:10.380Z,91.60
2019-03-21T03:16:42.552Z,91.60
2019-03-21T03:19:12.755Z,91.60
2019-03-21T03:21:45.567Z,91.60
2019-03-21T03:24:21.088Z,91.60
2019-03-21T03:26:54.272Z,91.50
2019-03-21T03:29:26.754Z,91.90
2019-03-21T03:31:56.603Z,91.60
2019-03-21T03:34:28.885Z,91.60
2019-03-21T03:37:05.078Z,91.20
2019-03-21T03:39:37.262Z,91.00
2019-03-21T03:42:07.045Z,90.80
2019-03-21T03:44:37.587Z,91.10
2019-03-21T03:47:07.764Z,91.10
2019-03-21T03:49:37.554Z,91.10
2019-03-21T03:52:07.395Z,90.80
2019-03-21T03:54:37.193Z,91.00
2019-03-21T03:57:07.034Z,91.20
2019-03-21T03:59:39.892Z,91.00
2019-03-21T04:02:15.041Z,90.90
2019-03-21T04:04:45.878Z,91.20
2019-03-21T04:07:15.687Z,91.30
2019-03-21T04:09:45.841Z,91.20
2019-03-21T04:12:16.084Z,91.30
2019-03-21T04:14:46.389Z,91.20
2019-03-21T04:17:16.266Z,91.40
2019-03-21T04:19:46.949Z,91.40
2019-03-21T04:22:20.002Z,91.20
2019-03-21T04:24:49.866Z,90.80
2019-03-21T04:27:24.071Z,90.60
2019-03-21T04:30:04.268Z,90.90
2019-03-21T04:32:34.095Z,91.20
2019-03-21T04:35:11.088Z,91.50
2019-03-21T04:37:43.637Z,91.60
2019-03-21T04:40:16.283Z,91.50
2019-03-21T04:42:46.382Z,91.50
2019-03-21T04:45:18.962Z,91.30
2019-03-21T04:47:54.071Z,91.10
2019-03-21T04:50:25.616Z,91.10
2019-03-21T04:52:56.466Z,91.10
2019-03-21T04:55:26.477Z,91.10
2019-03-21T04:57:56.767Z,91.10
2019-03-21T05:00:28.443Z,91.40
2019-03-21T05:02:59.446Z,91.10
2019-03-21T05:05:29.250Z,91.20
2019-03-21T05:07:59.620Z,91.40
2019-03-21T05:10:29.766Z,91.50
2019-03-21T05:12:59.612Z,91.20
2019-03-21T05:15:35.348Z,91.00
2019-03-21T05:18:13.463Z,90.90
2019-03-21T05:20:43.229Z,91.00
2019-03-21T05:23:13.094Z,91.30
2019-03-21T05:26:08.904Z,91.50
2019-03-21T05:28:39.822Z,91.50
2019-03-21T05:31:13.713Z,91.30
2019-03-21T05:33:44.522Z,91.00
2019-03-21T05:36:14.694Z,91.00
2019-03-21T05:38:44.526Z,91.10
2019-03-21T05:41:14.802Z,90.90
2019-03-21T05:43:48.237Z,90.90
2019-03-21T05:46:26.705Z,91.00
2019-03-21T05:48:48.641Z,91.30
2019-03-21T05:51:18.529Z,91.40
2019-03-21T05:53:48.328Z,91.40
2019-03-21T05:56:18.155Z,91.30
2019-03-21T05:58:47.938Z,91.60
2019-03-21T06:01:17.770Z,91.50
2019-03-21T06:03:52.162Z,91.40
2019-03-21T06:06:26.681Z,91.50
2019-03-21T06:08:56.544Z,91.80
2019-03-21T06:11:26.432Z,91.70
2019-03-21T06:13:57.282Z,91.40
2019-03-21T06:16:37.275Z,91.30
2019-03-21T06:19:13.824Z,91.20
2019-03-21T06:22:13.796Z,90.90
2019-03-21T06:25:15.934Z,90.50
2019-03-21T06:27:44.566Z,89.70
2019-03-21T06:30:14.675Z,88.80
2019-03-21T06:32:44.485Z,87.10
2019-03-21T06:35:24.400Z,85.20
2019-03-21T06:37:54.487Z,82.40
2019-03-21T06:40:26.373Z,82.00
2019-03-21T06:42:56.234Z,80.40
2019-03-21T06:45:26.068Z,78.90
2019-03-21T06:48:02.251Z,77.00
2019-03-21T06:50:32.147Z,76.40
2019-03-21T06:53:03.284Z,75.10
2019-03-21T06:55:31.869Z,74.00
2019-03-21T06:58:01.788Z,73.60
2019-03-21T07:00:32.079Z,73.10
2019-03-21T07:03:02.061Z,70.20
2019-03-21T07:05:32.176Z,69.10
2019-03-21T07:08:02.283Z,67.10
2019-03-21T07:10:32.160Z,66.20
2019-03-21T07:13:02.229Z,65.10
2019-03-21T07:15:32.064Z,63.80
2019-03-21T07:18:01.904Z,63.50
2019-03-21T07:20:31.700Z,64.10
2019-03-21T07:23:01.781Z,63.80
2019-03-21T07:25:31.993Z,65.30
2019-03-21T07:28:01.871Z,62.60
2019-03-21T07:30:32.020Z,62.40
2019-03-21T07:33:02.141Z,62.00
2019-03-21T07:35:32.071Z,63.80
2019-03-21T07:38:02.101Z,62.40
2019-03-21T07:40:33.987Z,56.60
2019-03-21T07:43:03.812Z,57.20
2019-03-21T07:45:33.596Z,58.30
2019-03-21T07:48:05.310Z,56.40
2019-03-21T07:50:34.599Z,55.10
2019-03-21T07:53:04.525Z,58.60
2019-03-21T07:55:34.830Z,57.10
2019-03-21T07:58:04.642Z,55.20
2019-03-21T08:00:34.664Z,54.80
2019-03-21T08:03:06.756Z,53.40
2019-03-21T08:05:40.627Z,55.80
2019-03-21T08:08:08.621Z,53.30
2019-03-21T08:10:38.865Z,51.80
2019-03-21T08:13:08.691Z,51.70
2019-03-21T08:15:39.635Z,50.10
2019-03-21T08:18:09.452Z,47.80
2019-03-21T08:20:58.408Z,47.10
2019-03-21T08:23:25.447Z,45.60
2019-03-21T08:25:57.390Z,46.40
2019-03-21T08:28:34.150Z,48.20
2019-03-21T08:31:18.939Z,46.60
2019-03-21T08:33:49.904Z,46.30
2019-03-21T08:36:25.350Z,44.00
2019-03-21T08:38:58.910Z,43.80
2019-03-21T08:41:30.729Z,43.70
2019-03-21T08:44:02.922Z,45.20
2019-03-21T08:46:33.920Z,47.20
2019-03-21T08:49:03.750Z,49.40
2019-03-21T08:51:33.689Z,46.30
2019-03-21T08:54:08.288Z,43.90
2019-03-21T08:56:39.404Z,45.00
2019-03-21T08:59:09.484Z,43.10
2019-03-21T09:01:39.285Z,40.60
2019-03-21T09:04:09.511Z,40.10
2019-03-21T09:06:39.623Z,41.90
2019-03-21T09:09:10.400Z,41.50
2019-03-21T09:11:40.217Z,42.50
2019-03-21T09:14:10.389Z,42.60
2019-03-21T09:16:40.243Z,41.50
2019-03-21T09:19:10.435Z,37.50
2019-03-21T09:21:40.783Z,35.80
2019-03-21T09:24:10.670Z,35.40
2019-03-21T09:26:40.512Z,35.40
2019-03-21T09:29:10.340Z,36.80
2019-03-21T09:31:41.244Z,39.30
2019-03-21T09:34:11.971Z,38.50
2019-03-21T09:36:42.487Z,34.70
2019-03-21T09:39:11.154Z,34.30
2019-03-21T09:41:41.191Z,34.80
2019-03-21T09:44:11.094Z,36.30
2019-03-21T09:46:50.385Z,32.70
2019-03-21T09:49:10.792Z,34.70
2019-03-21T09:51:40.957Z,32.50
2019-03-21T09:54:11.181Z,32.50
2019-03-21T09:56:41.080Z,34.80
2019-03-21T09:59:11.250Z,34.60
2019-03-21T10:01:41.066Z,32.20
2019-03-21T10:04:11.163Z,31.80
2019-03-21T10:06:42.967Z,32.40
2019-03-21T10:09:13.098Z,31.50
2019-03-21T10:11:42.955Z,31.30
2019-03-21T10:14:12.818Z,33.30
2019-03-21T10:16:43.387Z,32.10
2019-03-21T10:19:11.984Z,31.80
2019-03-21T10:21:43.476Z,34.00
2019-03-21T10:24:12.918Z,33.70
2019-03-21T10:26:43.551Z,33.40
2019-03-21T10:29:17.457Z,34.20
2019-03-21T10:31:47.334Z,35.10
2019-03-21T10:34:21.353Z,33.10
2019-03-21T10:36:51.500Z,34.50
2019-03-21T10:39:23.639Z,34.20
2019-03-21T10:41:53.546Z,32.40
2019-03-21T10:44:27.605Z,30.00
2019-03-21T10:46:57.477Z,32.80
2019-03-21T10:49:27.630Z,31.30
2019-03-21T10:51:57.490Z,30.90
2019-03-21T10:54:27.283Z,31.30
2019-03-21T10:56:58.161Z,31.10
2019-03-21T10:59:27.936Z,31.10
2019-03-21T11:02:06.875Z,30.20
2019-03-21T11:04:30.852Z,30.90
2019-03-21T11:07:01.876Z,32.50
2019-03-21T11:09:31.722Z,32.50
2019-03-21T11:12:10.605Z,32.20
2019-03-21T11:14:42.751Z,32.30
2019-03-21T11:17:31.464Z,30.60
2019-03-21T11:20:01.767Z,29.80
2019-03-21T11:22:31.852Z,28.50
2019-03-21T11:25:01.958Z,30.90
2019-03-21T11:27:32.073Z,30.20
2019-03-21T11:30:15.606Z,29.10
2019-03-21T11:32:36.361Z,27.60
2019-03-21T11:35:07.206Z,28.60
2019-03-21T11:37:37.094Z,27.20
2019-03-21T11:40:06.938Z,26.30
2019-03-21T11:42:37.101Z,24.10
2019-03-21T11:45:07.119Z,23.70
2019-03-21T11:47:41.593Z,24.00
2019-03-21T11:50:08.130Z,23.50
2019-03-21T11:52:41.006Z,22.70
2019-03-21T11:55:07.502Z,22.10
2019-03-21T11:57:37.279Z,22.90
2019-03-21T12:00:07.216Z,23.60
2019-03-21T12:02:37.060Z,23.90
2019-03-21T12:05:07.217Z,22.90
2019-03-21T12:07:37.084Z,23.70
2019-03-21T12:10:08.058Z,24.00
2019-03-21T12:12:38.831Z,22.50
2019-03-21T12:15:08.952Z,22.80
2019-03-21T12:17:38.811Z,22.90
2019-03-21T12:20:08.940Z,23.60
2019-03-21T12:22:38.818Z,22.60
2019-03-21T12:25:08.710Z,22.60
2019-03-21T12:27:38.802Z,23.10
2019-03-21T12:30:10.523Z,22.60
2019-03-21T12:32:40.353Z,21.50
2019-03-21T12:35:10.165Z,23.00
2019-03-21T12:37:41.525Z,20.90
2019-03-21T12:40:11.401Z,21.50
2019-03-21T12:42:41.250Z,20.30
2019-03-21T12:45:11.155Z,19.60
2019-03-21T12:47:41.208Z,19.80
2019-03-21T12:50:11.111Z,19.30
2019-03-21T12:52:43.321Z,19.70
2019-03-21T12:55:15.202Z,19.50
2019-03-21T12:57:46.536Z,21.70
2019-03-21T13:00:19.457Z,22.00
2019-03-21T13:02:50.510Z,21.50
2019-03-21T13:05:28.429Z,20.10
2019-03-21T13:07:58.597Z,21.80
2019-03-21T13:10:28.422Z,20.20
2019-03-21T13:12:58.372Z,19.20
2019-03-21T13:15:30.096Z,19.20
2019-03-21T13:18:00.648Z,19.90
2019-03-21T13:20:29.273Z,19.40
2019-03-21T13:22:59.328Z,18.90
2019-03-21T13:25:32.629Z,20.10
2019-03-21T13:28:04.730Z,20.00
2019-03-21T13:30:34.760Z,20.50
2019-03-21T13:33:05.021Z,20.40
2019-03-21T13:35:38.392Z,21.30
2019-03-21T13:38:08.217Z,22.50
2019-03-21T13:40:39.052Z,20.20
2019-03-21T13:43:11.199Z,20.70
2019-03-21T13:45:40.720Z,19.90
2019-03-21T13:48:10.535Z,20.80
2019-03-21T13:50:40.714Z,18.90
2019-03-21T13:53:18.595Z,20.60
2019-03-21T13:55:42.403Z,21.10
2019-03-21T13:58:11.170Z,22.30
2019-03-21T14:00:42.122Z,19.70
2019-03-21T14:03:12.295Z,20.90
2019-03-21T14:05:42.386Z,20.00
2019-03-21T14:08:14.850Z,20.70
2019-03-21T14:10:48.479Z,18.70
2019-03-21T14:13:19.294Z,19.10
2019-03-21T14:15:51.160Z,20.70
2019-03-21T14:18:20.946Z,20.60
2019-03-21T14:20:50.775Z,18.70
2019-03-21T14:23:20.572Z,19.40
2019-03-21T14:25:50.424Z,19.00
2019-03-21T14:28:21.237Z,17.90
2019-03-21T14:30:52.093Z,19.50
2019-03-21T14:33:22.216Z,19.50
2019-03-21T14:35:52.012Z,20.40
2019-03-21T14:38:26.085Z,20.70
2019-03-21T14:40:52.663Z,20.70
2019-03-21T14:43:24.767Z,21.70
2019-03-21T14:45:56.022Z,21.20
2019-03-21T14:48:25.865Z,21.00
2019-03-21T14:50:55.697Z,20.60
2019-03-21T14:53:31.768Z,20.60
2019-03-21T14:56:01.826Z,21.10
2019-03-21T14:58:31.641Z,21.00
2019-03-21T15:01:01.496Z,21.80
2019-03-21T15:03:31.532Z,21.10
2019-03-21T15:06:01.360Z,21.80
2019-03-21T15:08:31.208Z,20.80
2019-03-21T15:11:01.239Z,20.90
2019-03-21T15:13:31.149Z,21.10
2019-03-21T15:16:00.879Z,20.90
2019-03-21T15:18:30.829Z,21.00
2019-03-21T15:21:01.643Z,20.40
2019-03-21T15:23:40.143Z,20.20
2019-03-21T15:26:00.719Z,21.20
2019-03-21T15:28:30.554Z,20.10
2019-03-21T15:31:00.365Z,21.20
2019-03-21T15:33:30.144Z,21.20
2019-03-21T15:36:01.023Z,20.30
2019-03-21T15:38:30.913Z,20.80
2019-03-21T15:41:01.752Z,21.40
2019-03-21T15:43:31.917Z,22.80
2019-03-21T15:46:02.137Z,23.10
2019-03-21T15:48:31.997Z,24.10
2019-03-21T15:51:04.763Z,24.40
2019-03-21T15:53:31.731Z,23.90
2019-03-21T15:56:01.911Z,23.90
2019-03-21T15:58:31.753Z,24.20
2019-03-21T16:01:01.867Z,24.40
2019-03-21T16:03:32.984Z,24.20
2019-03-21T16:06:03.669Z,24.30
2019-03-21T16:08:34.405Z,25.00
2019-03-21T16:11:07.030Z,24.70
2019-03-21T16:13:37.650Z,24.50
2019-03-21T16:16:07.535Z,25.40
2019-03-21T16:18:37.416Z,26.70
2019-03-21T16:21:07.263Z,27.50
2019-03-21T16:23:37.167Z,28.00
2019-03-21T16:26:07.254Z,28.10
2019-03-21T16:28:39.126Z,27.80
2019-03-21T16:31:10.237Z,28.10
2019-03-21T16:33:43.246Z,28.70
2019-03-21T16:36:10.354Z,28.80
2019-03-21T16:38:42.437Z,29.20
2019-03-21T16:41:13.345Z,29.70
2019-03-21T16:43:43.487Z,29.80
2019-03-21T16:46:13.651Z,30.20
2019-03-21T16:48:43.799Z,29.90
2019-03-21T16:51:13.627Z,30.70
2019-03-21T16:53:44.084Z,30.50
2019-03-21T16:56:15.851Z,30.80
2019-03-21T16:58:45.930Z,31.10
2019-03-21T17:01:17.090Z,30.60
2019-03-21T17:03:47.030Z,31.90
2019-03-21T17:06:16.911Z,31.40
2019-03-21T17:08:46.839Z,32.70
2019-03-21T17:11:17.753Z,31.70
2019-03-21T17:13:48.728Z,32.50
2019-03-21T17:16:24.413Z,33.00
2019-03-21T17:18:54.463Z,33.60
2019-03-21T17:21:27.963Z,34.30
2019-03-21T17:23:58.002Z,35.20
2019-03-21T17:26:29.040Z,36.00
2019-03-21T17:28:58.896Z,36.10
2019-03-21T17:31:29.237Z,36.20
2019-03-21T17:33:59.375Z,36.70
2019-03-21T17:36:29.237Z,37.20
2019-03-21T17:38:59.043Z,38.20
2019-03-21T17:41:29.650Z,38.90
2019-03-21T17:44:00.974Z,40.70
2019-03-21T17:46:30.903Z,42.80
2019-03-21T17:49:00.827Z,44.50
2019-03-21T17:51:30.699Z,46.00
2019-03-21T17:54:00.574Z,46.70
2019-03-21T17:56:30.490Z,47.80
2019-03-21T17:59:00.289Z,48.30
2019-03-21T18:01:31.210Z,48.60
2019-03-21T18:04:01.380Z,49.00
2019-03-21T18:06:31.445Z,51.40
2019-03-21T18:09:02.300Z,52.50
2019-03-21T18:11:32.455Z,52.50
2019-03-21T18:14:02.241Z,53.90
2019-03-21T18:16:32.322Z,54.80
2019-03-21T18:19:02.241Z,54.80
2019-03-21T18:21:32.369Z,55.50
2019-03-21T18:24:02.591Z,55.50
2019-03-21T18:26:32.428Z,56.20
2019-03-21T18:29:04.302Z,56.70
2019-03-21T18:31:35.408Z,57.50
2019-03-21T18:34:05.521Z,57.90
2019-03-21T18:36:36.473Z,58.40
2019-03-21T18:39:09.558Z,59.20
2019-03-21T18:41:41.410Z,60.80
2019-03-21T18:44:11.286Z,61.10
2019-03-21T18:46:42.369Z,61.50
2019-03-21T18:49:15.271Z,62.00
2019-03-21T18:51:47.058Z,61.80
2019-03-21T18:54:17.155Z,61.80
2019-03-21T18:56:47.174Z,62.80
2019-03-21T18:59:18.007Z,63.10
2019-03-21T19:01:57.981Z,63.60
2019-03-21T19:04:16.421Z,63.60
2019-03-21T19:06:49.317Z,63.80
2019-03-21T19:09:19.813Z,64.30
2019-03-21T19:11:49.868Z,64.50
2019-03-21T19:14:25.356Z,64.70
2019-03-21T19:16:55.338Z,65.70
2019-03-21T19:19:26.142Z,66.00
2019-03-21T19:21:55.969Z,66.50
2019-03-21T19:24:27.800Z,67.20
2019-03-21T19:26:57.666Z,67.50
2019-03-21T19:29:27.805Z,68.00
2019-03-21T19:31:57.651Z,68.50
2019-03-21T19:34:27.492Z,68.50
2019-03-21T19:36:57.821Z,68.80
2019-03-21T19:39:27.716Z,68.40
2019-03-21T19:41:57.528Z,68.00
2019-03-21T19:44:27.320Z,68.20
2019-03-21T19:47:01.524Z,68.30
2019-03-21T19:49:36.053Z,69.10
2019-03-21T19:52:05.927Z,70.20
2019-03-21T19:54:37.207Z,70.20
2019-03-21T19:57:06.187Z,70.00
2019-03-21T19:59:35.989Z,69.60
2019-03-21T20:02:06.932Z,69.00
2019-03-21T20:04:36.554Z,69.20
2019-03-21T20:07:06.329Z,71.00
2019-03-21T20:09:36.210Z,72.20
2019-03-21T20:12:06.016Z,72.30
2019-03-21T20:14:42.194Z,73.00
2019-03-21T20:17:12.508Z,73.40
2019-03-21T20:19:42.281Z,73.50
2019-03-21T20:22:12.653Z,74.30
2019-03-21T20:24:43.103Z,74.00
2019-03-21T20:27:13.298Z,73.50
2019-03-21T20:29:43.109Z,73.90
2019-03-21T20:32:20.571Z,75.50
2019-03-21T20:34:44.688Z,75.20
2019-03-21T20:37:14.618Z,74.70
2019-03-21T20:39:44.857Z,74.00
2019-03-21T20:42:17.453Z,75.00
2019-03-21T20:44:47.549Z,75.50
2019-03-21T20:47:18.714Z,75.20
2019-03-21T20:49:50.759Z,75.50
2019-03-21T20:52:21.145Z,75.70
2019-03-21T20:54:51.508Z,75.80
2019-03-21T20:57:21.739Z,75.30
2019-03-21T20:59:51.936Z,75.50
2019-03-21T21:02:21.849Z,75.70
2019-03-21T21:04:51.696Z,76.10
2019-03-21T21:07:21.794Z,76.20
2019-03-21T21:09:52.697Z,76.40
2019-03-21T21:12:26.251Z,76.00
2019-03-21T21:14:56.396Z,75.90
2019-03-21T21:17:28.755Z,76.60
2019-03-21T21:19:58.566Z,77.20
2019-03-21T21:22:28.452Z,78.30
2019-03-21T21:24:58.480Z,78.70
2019-03-21T21:27:28.366Z,78.70
2019-03-21T21:29:58.482Z,78.50
2019-03-21T21:32:29.626Z,78.60
2019-03-21T21:38:47.632Z,78.10
2019-03-21T21:41:17.467Z,77.80
2019-03-21T21:43:48.287Z,77.90
2019-03-21T21:46:20.173Z,78.10
2019-03-21T21:48:51.235Z,78.40
2019-03-21T21:51:22.824Z,79.30
2019-03-21T21:53:52.670Z,80.10
2019-03-21T21:56:23.505Z,80.10
2019-03-21T21:58:53.570Z,80.20
2019-03-21T22:01:23.399Z,80.00
2019-03-21T22:04:04.637Z,79.40
2019-03-21T22:06:27.281Z,79.70
2019-03-21T22:08:57.154Z,79.90
2019-03-21T22:11:27.270Z,80.50
2019-03-21T22:14:03.709Z,80.70
2019-03-21T22:16:34.287Z,80.50
2019-03-21T22:19:04.076Z,80.40
2019-03-21T22:21:34.991Z,79.60
2019-03-21T22:24:15.806Z,79.50
2019-03-21T22:26:52.192Z,79.60
2019-03-21T22:29:22.165Z,80.10
2019-03-21T22:31:56.582Z,80.40
2019-03-21T22:34:26.639Z,80.20
2019-03-21T22:36:56.452Z,80.20
2019-03-21T22:39:26.351Z,80.00
2019-03-21T22:41:56.160Z,80.10
2019-03-21T22:44:27.008Z,80.70
2019-03-21T22:46:56.828Z,81.00
2019-03-21T22:49:27.357Z,81.20
2019-03-21T22:51:57.250Z,81.70
2019-03-21T22:54:29.099Z,81.90
2019-03-21T22:57:02.664Z,82.00
2019-03-21T22:59:32.893Z,81.90
2019-03-21T23:02:03.271Z,81.80
2019-03-21T23:04:33.392Z,82.40
2019-03-21T23:07:03.472Z,82.70
2019-03-21T23:09:33.284Z,82.70
2019-03-21T23:12:04.380Z,82.90
2019-03-21T23:14:33.083Z,82.50
2019-03-21T23:17:02.981Z,82.40
2019-03-21T23:19:33.531Z,82.30
2019-03-21T23:22:03.669Z,82.20
2019-03-21T23:24:33.866Z,82.50
2019-03-21T23:27:04.036Z,82.70
2019-03-21T23:29:33.815Z,82.90
2019-03-21T23:32:03.672Z,83.40
2019-03-21T23:34:33.726Z,83.80
2019-03-21T23:37:03.625Z,83.90
2019-03-21T23:39:39.320Z,83.70
2019-03-21T23:42:10.671Z,83.40
2019-03-21T23:44:40.753Z,83.70
2019-03-21T23:47:11.656Z,83.80
2019-03-21T23:49:41.788Z,84.00
2019-03-21T23:52:11.819Z,83.80
2019-03-21T23:54:42.092Z,83.10
2019-03-21T23:57:11.781Z,83.30
2019-03-21T23:59:41.613Z,83.10
